Time;durP1;ratioP1;P1;durP2;ratioP2;P2;SDS_P1;SDS_P2;PMS_P1;PMS_P2;Temp;Humidity;BMP_temperature;BMP_pressure;BME280_temperature;BME280_humidity;BME280_pressure;Samples;Min_cycle;Max_cycle;Signal;HPM_P1;HPM_P2
2023/03/02 05:07:24;;;;;;;;;63.50;48.75;;;;;;;;6117278;31;52300;-64
2023/03/02 05:13:28;;;;;;;;;60.00;49.25;;;;;;;;6507842;36;8941;-63
2023/03/02 05:19:30;;;;;;;;;60.25;48.00;;;;;;;;6489562;39;8875;-64
2023/03/02 05:25:34;;;;;;;;;66.25;52.00;;;;;;;;6490305;39;8883;-63
2023/03/02 05:31:40;;;;;;;;;55.25;43.75;;;;;;;;6488722;39;8923;-64
2023/03/02 05:37:43;;;;;;;;;64.75;49.00;;;;;;;;6487878;47;8927;-64
2023/03/02 05:43:46;;;;;;;;;58.50;47.50;;;;;;;;6489476;31;8927;-64
2023/03/02 05:49:49;;;;;;;;;51.00;46.00;;;;;;;;6490427;39;8971;-63
2023/03/02 05:55:52;;;;;;;;;55.50;44.00;;;;;;;;6489412;31;8911;-62
2023/03/02 06:01:57;;;;;;;;;49.25;47.00;;;;;;;;6488927;31;9014;-63
2023/03/02 06:08:02;;;;;;;;;53.50;45.25;;;;;;;;6490294;47;8972;-63
2023/03/02 06:14:06;;;;;;;;;43.00;37.00;;;;;;;;6489315;31;8887;-63
2023/03/02 06:20:09;;;;;;;;;70.75;54.50;;;;;;;;6490889;31;8943;-65
2023/03/02 06:26:17;;;;;;;;;53.25;44.75;;;;;;;;6490009;31;8966;-62
2023/03/02 06:32:20;;;;;;;;;58.00;46.75;;;;;;;;6488911;39;9513;-63
2023/03/02 06:38:24;;;;;;;;;62.50;49.00;;;;;;;;6490123;39;8867;-63
2023/03/02 06:44:29;;;;;;;;;52.25;42.50;;;;;;;;6486583;47;8921;-62
2023/03/02 06:50:33;;;;;;;;;52.50;44.25;;;;;;;;6487800;39;8841;-62
2023/03/02 06:56:36;;;;;;;;;63.25;48.25;;;;;;;;6490023;31;8959;-63
2023/03/02 07:02:45;;;;;;;;;35.25;29.00;;;;;;;;6489313;39;8931;-64
2023/03/02 07:08:47;;;;;;;;;55.00;47.25;;;;;;;;6492284;31;8892;-64
2023/03/02 07:14:52;;;;;;;;;46.25;42.25;;;;;;;;6491011;39;8976;-65
2023/03/02 07:20:56;;;;;;;;;47.50;42.00;;;;;;;;6491262;46;8902;-62
2023/03/02 07:26:59;;;;;;;;;39.25;32.50;;;;;;;;6490828;39;8929;-64
2023/03/02 07:33:04;;;;;;;;;57.00;47.50;;;;;;;;6490346;39;9002;-64
2023/03/02 07:39:08;;;;;;;;;62.75;50.00;;;;;;;;6490053;39;8869;-64
2023/03/02 07:45:15;;;;;;;;;50.75;45.00;;;;;;;;6488990;31;8938;-64
2023/03/02 07:51:31;;;;;;;;;45.50;35.75;;;;;;;;6491147;31;8878;-66
2023/03/02 07:57:34;;;;;;;;;52.75;45.25;;;;;;;;6489445;39;9528;-64
2023/03/02 08:03:38;;;;;;;;;61.75;49.25;;;;;;;;6489483;31;8977;-63
2023/03/02 08:09:42;;;;;;;;;66.00;53.25;;;;;;;;6486898;39;8973;-62
2023/03/02 08:15:45;;;;;;;;;45.50;42.00;;;;;;;;6487188;39;8935;-61
2023/03/02 08:21:47;;;;;;;;;53.00;45.00;;;;;;;;6486836;31;8907;-63
2023/03/02 08:27:51;;;;;;;;;59.00;49.75;;;;;;;;6485117;31;9071;-62
2023/03/02 08:33:54;;;;;;;;;63.50;50.50;;;;;;;;6484682;39;9558;-63
2023/03/02 08:39:56;;;;;;;;;60.75;45.50;;;;;;;;6486327;31;9086;-63
2023/03/02 08:46:01;;;;;;;;;69.50;56.50;;;;;;;;6485704;31;8980;-64
2023/03/02 08:52:04;;;;;;;;;46.50;42.25;;;;;;;;6486824;39;9005;-62
2023/03/02 08:58:07;;;;;;;;;40.25;38.75;;;;;;;;6487527;31;9526;-64
2023/03/02 09:04:17;;;;;;;;;62.00;48.25;;;;;;;;6487145;46;8983;-64
2023/03/02 09:10:20;;;;;;;;;46.75;44.00;;;;;;;;6487092;39;8935;-64
2023/03/02 09:16:24;;;;;;;;;51.00;43.50;;;;;;;;6486021;39;8919;-61
2023/03/02 09:22:27;;;;;;;;;59.50;47.00;;;;;;;;6486831;46;8898;-65
2023/03/02 09:28:37;;;;;;;;;48.00;43.25;;;;;;;;6304523;39;10002007;-61
2023/03/02 09:34:39;;;;;;;;;44.25;41.50;;;;;;;;6485137;31;8903;-63
2023/03/02 09:40:53;;;;;;;;;79.75;64.75;;;;;;;;6485027;31;9613;-63
2023/03/02 09:47:01;;;;;;;;;46.25;40.00;;;;;;;;6485506;31;8980;-64
2023/03/02 09:53:29;;;;;;;;;59.00;48.50;;;;;;;;6485399;39;8999;-64
2023/03/02 09:59:43;;;;;;;;;59.75;47.25;;;;;;;;6484567;39;9011;-62
2023/03/02 10:05:51;;;;;;;;;84.50;67.00;;;;;;;;6486317;31;9225;-61
2023/03/02 10:12:13;;;;;;;;;68.25;54.75;;;;;;;;6488639;39;9013;-65
2023/03/02 10:18:34;;;;;;;;;44.00;39.50;;;;;;;;6487694;39;8967;-63
2023/03/02 10:25:00;;;;;;;;;51.25;44.50;;;;;;;;6488738;39;8931;-62
2023/03/02 10:31:25;;;;;;;;;53.50;43.50;;;;;;;;6489200;39;8904;-63
2023/03/02 10:37:29;;;;;;;;;43.50;37.25;;;;;;;;6491119;31;9089;-64
2023/03/02 10:43:43;;;;;;;;;47.25;42.75;;;;;;;;6488483;39;8932;-61
2023/03/02 10:49:48;;;;;;;;;60.25;48.75;;;;;;;;6490508;39;8969;-63
2023/03/02 10:55:52;;;;;;;;;51.25;44.25;;;;;;;;6488336;39;8964;-63
2023/03/02 11:01:59;;;;;;;;;58.50;43.00;;;;;;;;6488999;39;8968;-63
2023/03/02 11:08:04;;;;;;;;;47.50;42.75;;;;;;;;6488387;31;8901;-64
2023/03/02 11:14:18;;;;;;;;;58.25;44.50;;;;;;;;6487432;31;9006;-64
2023/03/02 11:20:30;;;;;;;;;43.50;38.50;;;;;;;;6489744;31;8905;-62
2023/03/02 11:26:46;;;;;;;;;53.50;45.75;;;;;;;;6488208;39;8949;-64
2023/03/02 11:33:20;;;;;;;;;45.50;40.50;;;;;;;;6488308;39;8885;-63
2023/03/02 11:39:35;;;;;;;;;58.00;50.50;;;;;;;;6488944;39;8917;-63
2023/03/02 11:46:06;;;;;;;;;64.00;49.00;;;;;;;;6487300;46;8901;-64
2023/03/02 11:52:26;;;;;;;;;62.50;52.25;;;;;;;;6488244;39;8975;-64
2023/03/02 11:58:31;;;;;;;;;62.75;47.50;;;;;;;;6489344;39;8917;-63
2023/03/02 12:04:38;;;;;;;;;44.75;41.50;;;;;;;;6489600;31;9169;-64
2023/03/02 12:10:54;;;;;;;;;63.25;53.00;;;;;;;;6489313;39;8947;-63
2023/03/02 12:17:38;;;;;;;;;43.50;37.50;;;;;;;;6491199;31;8956;-64
2023/03/02 12:23:55;;;;;;;;;57.00;46.50;;;;;;;;6489824;46;8914;-63
2023/03/02 12:30:09;;;;;;;;;47.00;39.67;;;;;;;;6491913;39;8821;-63
2023/03/02 12:36:33;;;;;;;;;49.00;45.75;;;;;;;;6491294;39;9098;-63
2023/03/02 12:42:41;;;;;;;;;53.25;45.50;;;;;;;;6490262;39;8915;-64
2023/03/02 12:49:21;;;;;;;;;72.75;55.75;;;;;;;;6487946;46;8948;-64
2023/03/02 12:55:24;;;;;;;;;64.50;51.75;;;;;;;;6492240;39;8832;-62
2023/03/02 13:01:32;;;;;;;;;44.00;42.00;;;;;;;;6490153;39;8852;-63
2023/03/02 13:07:40;;;;;;;;;47.75;39.00;;;;;;;;6490829;39;9009;-63
2023/03/02 13:13:44;;;;;;;;;43.75;38.50;;;;;;;;6492446;31;8975;-64
2023/03/02 13:19:49;;;;;;;;;52.25;44.50;;;;;;;;6490670;31;8932;-63
2023/03/02 13:26:01;;;;;;;;;40.25;36.00;;;;;;;;6490347;39;8881;-65
2023/03/02 13:32:17;;;;;;;;;58.00;47.75;;;;;;;;6491072;39;8930;-64
2023/03/02 13:38:22;;;;;;;;;49.75;43.75;;;;;;;;6490127;46;8898;-63
2023/03/02 13:44:29;;;;;;;;;59.50;48.75;;;;;;;;6490397;46;8919;-63
2023/03/02 13:50:31;;;;;;;;;64.50;53.00;;;;;;;;6490124;31;8988;-63
2023/03/02 13:56:39;;;;;;;;;45.75;41.50;;;;;;;;6490306;39;8909;-63
2023/03/02 14:02:42;;;;;;;;;47.75;42.25;;;;;;;;6488794;47;8942;-62
2023/03/02 14:08:45;;;;;;;;;61.50;49.25;;;;;;;;6488995;47;8985;-64
2023/03/02 14:14:48;;;;;;;;;63.25;50.50;;;;;;;;6489808;39;8926;-62
2023/03/02 14:20:54;;;;;;;;;52.75;46.00;;;;;;;;6488650;31;9471;-64
2023/03/02 14:26:56;;;;;;;;;81.50;61.75;;;;;;;;6490067;39;8955;-64
2023/03/02 14:32:59;;;;;;;;;51.50;42.75;;;;;;;;6488612;31;8976;-64
2023/03/02 14:39:04;;;;;;;;;49.50;45.50;;;;;;;;6486411;31;8928;-64
2023/03/02 14:45:09;;;;;;;;;50.25;43.50;;;;;;;;6485590;47;8960;-63
2023/03/02 14:51:20;;;;;;;;;62.25;50.50;;;;;;;;6486392;39;9066;-63
2023/03/02 14:57:25;;;;;;;;;49.25;42.25;;;;;;;;6487746;39;8914;-64
2023/03/02 15:03:28;;;;;;;;;58.00;45.75;;;;;;;;6487143;47;9015;-63
2023/03/02 15:09:31;;;;;;;;;47.75;41.25;;;;;;;;6486317;47;8998;-63
2023/03/02 15:15:33;;;;;;;;;64.00;50.75;;;;;;;;6487184;46;8921;-64
2023/03/02 15:21:40;;;;;;;;;62.25;51.00;;;;;;;;6487247;39;8932;-63
2023/03/02 15:27:44;;;;;;;;;49.50;41.00;;;;;;;;6485311;46;8937;-66
2023/03/02 15:33:50;;;;;;;;;49.50;42.25;;;;;;;;6488890;31;8892;-66
2023/03/02 15:39:58;;;;;;;;;52.50;45.75;;;;;;;;6491345;31;8817;-68
2023/03/02 15:46:05;;;;;;;;;48.75;43.25;;;;;;;;6491061;31;8936;-67
2023/03/02 15:52:11;;;;;;;;;42.50;37.25;;;;;;;;6489878;46;8893;-68
2023/03/02 15:58:18;;;;;;;;;49.50;45.00;;;;;;;;6491517;39;8870;-67
2023/03/02 16:04:22;;;;;;;;;55.00;46.50;;;;;;;;6489724;39;8909;-67
2023/03/02 16:10:30;;;;;;;;;56.50;47.00;;;;;;;;6489131;39;8966;-68
2023/03/02 16:16:37;;;;;;;;;48.25;42.75;;;;;;;;6488664;39;8860;-68
2023/03/02 16:22:42;;;;;;;;;49.75;43.25;;;;;;;;6489170;39;8867;-67
2023/03/02 16:28:45;;;;;;;;;54.25;46.50;;;;;;;;6487796;39;8982;-68
2023/03/02 16:34:49;;;;;;;;;51.75;42.50;;;;;;;;6487778;39;8852;-68
2023/03/02 16:40:54;;;;;;;;;51.00;46.25;;;;;;;;6488088;39;8896;-67
2023/03/02 16:47:24;;;;;;;;;53.00;45.25;;;;;;;;6495051;31;8974;-67
2023/03/02 16:53:28;;;;;;;;;56.25;45.50;;;;;;;;6492936;39;9926;-67
2023/03/02 16:59:32;;;;;;;;;51.50;45.00;;;;;;;;6487820;39;8921;-68
2023/03/02 17:05:35;;;;;;;;;45.75;40.50;;;;;;;;6487329;39;9127;-67
2023/03/02 17:11:47;;;;;;;;;47.75;42.25;;;;;;;;6489033;31;8955;-68
2023/03/02 17:17:53;;;;;;;;;51.50;46.00;;;;;;;;6488096;39;8828;-67
2023/03/02 17:24:05;;;;;;;;;51.00;43.25;;;;;;;;6488031;46;8911;-68
2023/03/02 17:30:14;;;;;;;;;51.50;43.00;;;;;;;;6487474;39;8953;-68
2023/03/02 17:36:24;;;;;;;;;52.75;45.00;;;;;;;;6488184;39;9525;-67
2023/03/02 17:42:27;;;;;;;;;55.50;46.25;;;;;;;;6487564;46;8915;-66
2023/03/02 17:48:29;;;;;;;;;52.50;43.50;;;;;;;;6486618;39;8919;-66
2023/03/02 17:54:34;;;;;;;;;59.25;45.00;;;;;;;;6487182;46;8949;-67
2023/03/02 18:00:44;;;;;;;;;56.25;45.00;;;;;;;;6487439;39;8949;-67
2023/03/02 18:06:50;;;;;;;;;53.50;44.25;;;;;;;;6488247;39;9609;-66
2023/03/02 18:12:56;;;;;;;;;44.00;42.75;;;;;;;;6486865;31;8903;-66
2023/03/02 18:19:01;;;;;;;;;55.50;47.00;;;;;;;;6487685;31;9483;-68
2023/03/02 18:25:04;;;;;;;;;64.75;50.75;;;;;;;;6487385;39;8859;-67
2023/03/02 18:31:06;;;;;;;;;52.50;45.25;;;;;;;;6486324;47;8888;-67
2023/03/02 18:37:19;;;;;;;;;61.75;49.50;;;;;;;;6486876;39;8909;-66
2023/03/02 18:43:23;;;;;;;;;48.50;44.00;;;;;;;;6485993;47;8904;-67
2023/03/02 18:49:29;;;;;;;;;58.50;47.00;;;;;;;;6488712;39;8977;-67
2023/03/02 18:55:39;;;;;;;;;61.75;49.50;;;;;;;;6488583;39;8912;-66
2023/03/02 19:02:27;;;;;;;;;60.25;50.00;;;;;;;;6494411;46;8962;-67
2023/03/02 19:08:36;;;;;;;;;64.25;51.00;;;;;;;;6490865;39;9606;-67
2023/03/02 19:14:42;;;;;;;;;49.75;44.75;;;;;;;;6488074;39;8919;-67
2023/03/02 19:20:50;;;;;;;;;58.00;48.50;;;;;;;;6489446;31;8841;-67
2023/03/02 19:26:58;;;;;;;;;60.25;49.25;;;;;;;;6487463;46;8936;-67
2023/03/02 19:33:05;;;;;;;;;58.75;49.50;;;;;;;;6489028;39;9053;-66
2023/03/02 19:39:11;;;;;;;;;50.50;46.75;;;;;;;;6489031;39;8874;-67
2023/03/02 19:45:19;;;;;;;;;54.50;46.75;;;;;;;;6488487;46;8894;-66
2023/03/02 19:51:25;;;;;;;;;59.00;47.50;;;;;;;;6487900;39;8940;-67
2023/03/02 19:57:32;;;;;;;;;60.00;49.75;;;;;;;;6487435;46;8928;-67
2023/03/02 20:03:35;;;;;;;;;56.25;47.25;;;;;;;;6491796;36;8998;-66
2023/03/02 20:09:41;;;;;;;;;56.50;47.50;;;;;;;;6487384;39;9154;-66
2023/03/02 20:15:47;;;;;;;;;51.25;44.25;;;;;;;;6489294;31;8876;-70
2023/03/02 20:21:51;;;;;;;;;54.25;45.75;;;;;;;;6488553;39;9553;-68
2023/03/02 20:28:04;;;;;;;;;46.25;41.75;;;;;;;;6488285;31;8858;-66
2023/03/02 20:34:15;;;;;;;;;50.00;42.25;;;;;;;;6487746;39;8890;-68
2023/03/02 20:40:22;;;;;;;;;45.75;42.00;;;;;;;;6487498;39;8896;-67
2023/03/02 20:46:30;;;;;;;;;64.50;50.25;;;;;;;;6488282;39;8883;-67
2023/03/02 20:52:35;;;;;;;;;67.75;53.50;;;;;;;;6488783;31;8842;-66
2023/03/02 20:58:40;;;;;;;;;63.75;50.25;;;;;;;;6488322;39;9550;-68
2023/03/02 21:04:42;;;;;;;;;57.75;50.50;;;;;;;;6488804;39;8914;-67
2023/03/02 21:10:48;;;;;;;;;63.00;50.50;;;;;;;;6487286;39;9017;-67
2023/03/02 21:16:53;;;;;;;;;57.75;48.00;;;;;;;;6488180;46;8850;-68
2023/03/02 21:22:56;;;;;;;;;58.25;46.75;;;;;;;;6498638;31;8875;-68
2023/03/02 21:29:02;;;;;;;;;58.00;49.50;;;;;;;;6492700;39;8940;-67
2023/03/02 21:35:15;;;;;;;;;49.25;43.75;;;;;;;;6486649;39;8947;-67
2023/03/02 21:41:18;;;;;;;;;57.75;44.00;;;;;;;;6487990;39;8928;-67
2023/03/02 21:47:22;;;;;;;;;58.25;45.50;;;;;;;;6487264;31;9046;-67
2023/03/02 21:53:27;;;;;;;;;56.25;46.25;;;;;;;;6486792;39;8894;-66
2023/03/02 21:59:41;;;;;;;;;59.50;49.75;;;;;;;;6486900;46;8871;-65
2023/03/02 22:05:46;;;;;;;;;63.00;49.25;;;;;;;;6486844;39;8918;-68
2023/03/02 22:11:52;;;;;;;;;52.75;45.00;;;;;;;;6487668;39;8927;-66
2023/03/02 22:17:55;;;;;;;;;51.75;44.75;;;;;;;;6486932;39;9008;-66
2023/03/02 22:24:35;;;;;;;;;60.50;50.25;;;;;;;;6488682;39;8860;-67
2023/03/02 22:30:38;;;;;;;;;59.00;49.00;;;;;;;;6490408;39;9675;-68
2023/03/02 22:36:46;;;;;;;;;53.75;45.50;;;;;;;;6488505;46;8979;-65
2023/03/02 22:43:07;;;;;;;;;53.75;46.25;;;;;;;;6488866;39;8875;-66
2023/03/02 22:49:16;;;;;;;;;55.25;47.00;;;;;;;;6488650;39;8943;-66
2023/03/02 22:55:34;;;;;;;;;67.25;50.50;;;;;;;;6489813;39;9580;-66
2023/03/02 23:01:43;;;;;;;;;62.50;48.75;;;;;;;;6489211;39;8994;-66
2023/03/02 23:07:48;;;;;;;;;52.50;46.25;;;;;;;;6489648;39;8897;-66
2023/03/02 23:13:53;;;;;;;;;60.75;51.00;;;;;;;;6488723;46;8934;-68
2023/03/02 23:20:00;;;;;;;;;55.75;47.25;;;;;;;;6488821;46;8889;-67
2023/03/02 23:26:02;;;;;;;;;60.75;48.25;;;;;;;;6489240;39;8871;-67
2023/03/02 23:32:09;;;;;;;;;58.75;47.50;;;;;;;;6488613;46;8944;-66
2023/03/02 23:38:13;;;;;;;;;50.25;44.50;;;;;;;;6488977;39;8975;-66
2023/03/02 23:44:18;;;;;;;;;60.50;47.75;;;;;;;;6489132;39;8916;-66
2023/03/02 23:50:29;;;;;;;;;52.75;46.50;;;;;;;;6493472;31;8931;-66
2023/03/02 23:56:34;;;;;;;;;57.25;48.25;;;;;;;;6494077;39;8909;-67
